Meteorológiai információk azoknak akik tudják olvasni.

METAR = LHBP 181030Z 11006KT 080V140 CAVOK 19/13 Q1019 NOSIG

9 órás TAF = TAF TAF LHBP 182000Z 1820/1821 CNL

24 órás TAF = TAF TAF LHBP 180515Z 1806/1906 VRB03KT 6000 NSC TEMPO 1806/1808 2000 BCFG BR BECMG 1808/1810 CAVOK BECMG 1810/1812 13006KT BECMG 1818/1820 VRB03KT BECMG 1822/1824 5000 BR TEMPO 1902/1906 1200 BCFG

ÁLLOMÁS.................... LHBP
ÉSZLELÉS................... Wed Oct 18, 12:30 CEST
MOST....................... Wed Oct 18, 12:51 CEST
IDŐ........................ 21 perccel ezelőtt
SZÉL....................... KDK irányból 6 csomó
LÁTÁSTÁVOLSÁG.............. 10 km vagy több
FELHŐZET................... jelentős felhőzet nincs
HŐMÉRSÉKLET................ 66°F (19°C)
HARMATPONT................. 55°F (13°C)
PÁRATARTALOM............... 68%
LÉGNYOMÁS.................. 1019 hPa (30.09 in Hg)

További információ LHBP állomásról

Meteor információ kérése:        állomásról.    

 

www.tothgeza.hu

 

English version
Copyright © 2003-2017 Tóth Géza Minden jog fenntartva.